Time;durP1;ratioP1;P1;durP2;ratioP2;P2;SDS_P1;SDS_P2;PMS_P1;PMS_P2;Temp;Humidity;BMP_temperature;BMP_pressure;BME280_temperature;BME280_humidity;BME280_pressure;Samples;Min_cycle;Max_cycle;Signal;HPM_P1;HPM_P2
2021/01/08 00:03:35;;;;;;;5.73;3.87;;;19.80;29.10;;;;;;8335854;28;20037;-57
2021/01/08 00:07:39;;;;;;;5.37;3.70;;;19.80;29.10;;;;;;8357414;28;20029;-57
2021/01/08 00:11:39;;;;;;;4.93;3.60;;;19.80;29.10;;;;;;8331935;28;20033;-56
2021/01/08 00:15:40;;;;;;;5.83;3.90;;;19.70;29.10;;;;;;8324269;28;20037;-58
2021/01/08 00:19:40;;;;;;;6.17;4.40;;;19.70;29.10;;;;;;8324393;28;20041;-58
2021/01/08 00:23:41;;;;;;;4.97;3.83;;;19.70;29.10;;;;;;8325917;28;20482;-58
2021/01/08 00:27:41;;;;;;;5.07;3.53;;;19.70;29.10;;;;;;8348052;28;20026;-58
2021/01/08 00:31:43;;;;;;;4.33;3.50;;;19.70;29.10;;;;;;8340638;28;20064;-58
2021/01/08 00:35:43;;;;;;;5.70;3.83;;;19.70;29.10;;;;;;8326947;28;20481;-58
2021/01/08 00:39:44;;;;;;;5.70;3.93;;;19.70;29.10;;;;;;8323779;28;20072;-57
2021/01/08 00:43:45;;;;;;;5.57;3.53;;;19.70;29.10;;;;;;8325971;28;20426;-58
2021/01/08 00:47:45;;;;;;;4.90;3.60;;;19.70;29.10;;;;;;8325026;28;20040;-58
2021/01/08 00:51:46;;;;;;;5.40;3.73;;;19.60;29.10;;;;;;8323907;28;20046;-58
2021/01/08 00:55:46;;;;;;;4.97;3.70;;;19.60;29.10;;;;;;8344374;28;20398;-58
2021/01/08 00:59:47;;;;;;;4.90;3.53;;;19.60;29.10;;;;;;8352974;28;20068;-58
2021/01/08 01:03:48;;;;;;;5.33;3.50;;;19.50;29.10;;;;;;8334602;28;20463;-58
2021/01/08 01:07:49;;;;;;;5.78;3.63;;;19.50;29.10;;;;;;8329639;28;20041;-58
2021/01/08 01:11:50;;;;;;;6.65;4.53;;;19.50;29.10;;;;;;8327749;28;20049;-58
2021/01/08 01:15:50;;;;;;;4.93;3.80;;;19.50;29.10;;;;;;8329453;28;20046;-58
2021/01/08 01:19:52;;;;;;;5.18;3.60;;;19.50;29.10;;;;;;8333729;28;20124;-58
2021/01/08 01:23:54;;;;;;;5.20;3.70;;;19.50;29.10;;;;;;8332789;28;20037;-58
2021/01/08 01:27:54;;;;;;;4.28;3.17;;;19.50;29.10;;;;;;8362189;28;20082;-58
2021/01/08 01:31:55;;;;;;;4.40;3.03;;;19.50;29.10;;;;;;8340250;28;20038;-58
2021/01/08 01:35:56;;;;;;;4.77;3.50;;;19.40;29.10;;;;;;8327214;28;20036;-59
2021/01/08 01:39:56;;;;;;;5.23;3.77;;;19.40;29.10;;;;;;8333368;28;20127;-58
2021/01/08 01:43:57;;;;;;;5.63;3.67;;;19.40;29.10;;;;;;8328952;28;20264;-58
2021/01/08 01:47:58;;;;;;;4.90;3.47;;;19.40;29.10;;;;;;8327044;28;20037;-57
2021/01/08 01:52:00;;;;;;;5.47;3.70;;;19.40;29.10;;;;;;8328564;28;20793;-58
2021/01/08 01:56:01;;;;;;;6.38;4.13;;;19.40;29.10;;;;;;8332694;28;20202;-59
2021/01/08 02:00:03;;;;;;;5.40;4.00;;;19.40;29.10;;;;;;8351307;28;20392;-58
2021/01/08 02:04:04;;;;;;;5.28;3.75;;;19.30;29.10;;;;;;8342972;28;20489;-58
2021/01/08 02:08:09;;;;;;;5.47;4.22;;;19.30;29.10;;;;;;8361000;28;20482;-58
2021/01/08 02:12:10;;;;;;;5.85;3.83;;;19.30;29.20;;;;;;8360932;28;20382;-58
2021/01/08 02:16:13;;;;;;;3.75;3.17;;;19.30;29.10;;;;;;8348116;28;20037;-58
2021/01/08 02:20:14;;;;;;;5.97;3.60;;;19.30;29.20;;;;;;8327372;28;20047;-58
2021/01/08 02:24:30;;;;;;;5.05;3.33;;;19.20;29.10;;;;;;8325726;28;20040;-58
2021/01/08 02:28:31;;;;;;;5.40;3.85;;;19.20;29.10;;;;;;8327531;28;20044;-58
2021/01/08 02:32:33;;;;;;;4.65;3.33;;;19.20;29.10;;;;;;8330009;28;20034;-60
2021/01/08 02:36:38;;;;;;;5.25;3.22;;;19.20;29.20;;;;;;8326597;28;20044;-58
2021/01/08 02:40:39;;;;;;;5.50;3.97;;;19.20;29.20;;;;;;8326765;28;20449;-58
2021/01/08 02:44:39;;;;;;;5.87;4.13;;;19.20;29.20;;;;;;8328136;28;20094;-58
2021/01/08 02:48:40;;;;;;;4.57;3.27;;;19.10;29.20;;;;;;8348244;28;20103;-59
2021/01/08 02:52:43;;;;;;;4.73;3.33;;;19.10;29.10;;;;;;8330957;28;20044;-58
2021/01/08 02:56:50;;;;;;;4.65;3.30;;;19.10;29.20;;;;;;8328191;28;20041;-58
2021/01/08 03:00:53;;;;;;;5.25;3.53;;;19.10;29.20;;;;;;8358913;28;20053;-58
2021/01/08 03:04:54;;;;;;;5.57;3.75;;;19.10;29.20;;;;;;8337204;28;20129;-58
2021/01/08 03:08:56;;;;;;;4.47;3.35;;;19.10;29.20;;;;;;8328625;28;20041;-58
2021/01/08 03:13:00;;;;;;;4.97;3.92;;;19.10;29.20;;;;;;8339485;28;20033;-58
2021/01/08 03:17:01;;;;;;;6.78;3.88;;;19.00;29.20;;;;;;8358882;28;20568;-58
2021/01/08 03:21:02;;;;;;;4.20;2.90;;;19.00;29.20;;;;;;8325828;28;20034;-58
2021/01/08 03:25:03;;;;;;;4.67;3.57;;;19.00;29.20;;;;;;8326089;28;20064;-58
2021/01/08 03:29:03;;;;;;;3.13;2.60;;;19.00;29.20;;;;;;8297295;28;20274;-58
2021/01/08 03:33:04;;;;;;;4.87;3.93;;;19.00;29.20;;;;;;8315297;28;20364;-58
2021/01/08 03:37:04;;;;;;;4.93;3.70;;;19.00;29.20;;;;;;8324864;28;20402;-58
2021/01/08 03:41:05;;;;;;;4.47;3.23;;;19.00;29.20;;;;;;8324814;28;20030;-57
2021/01/08 03:45:06;;;;;;;4.57;3.10;;;19.00;29.20;;;;;;8327602;28;20494;-58
2021/01/08 03:49:07;;;;;;;5.00;3.40;;;19.00;29.20;;;;;;8340090;28;20029;-58
2021/01/08 03:53:07;;;;;;;5.50;3.73;;;18.90;29.20;;;;;;8357676;28;20067;-58
2021/01/08 03:57:08;;;;;;;4.73;3.10;;;18.90;29.20;;;;;;8356051;28;20041;-58
2021/01/08 04:01:08;;;;;;;5.53;3.20;;;18.90;29.20;;;;;;8362113;28;20040;-58
2021/01/08 04:05:09;;;;;;;4.50;3.37;;;18.90;29.20;;;;;;8357467;28;20128;-58
2021/01/08 04:09:10;;;;;;;6.22;4.03;;;18.90;29.20;;;;;;8348534;28;20026;-58
2021/01/08 04:13:10;;;;;;;4.27;3.20;;;18.90;29.30;;;;;;8340001;28;20494;-58
2021/01/08 04:17:11;;;;;;;4.87;3.27;;;18.80;29.20;;;;;;8357002;28;20037;-56
2021/01/08 04:21:11;;;;;;;4.77;2.97;;;18.80;29.20;;;;;;8360326;28;20029;-57
2021/01/08 04:25:12;;;;;;;5.13;3.37;;;18.80;29.20;;;;;;8356972;28;20033;-57
2021/01/08 04:29:13;;;;;;;4.00;3.03;;;18.90;29.20;;;;;;8333287;28;20037;-57
2021/01/08 04:33:13;;;;;;;5.00;3.27;;;18.90;29.20;;;;;;8323660;28;20041;-57
2021/01/08 04:37:14;;;;;;;4.87;3.27;;;18.90;29.20;;;;;;8335316;28;20034;-57
2021/01/08 04:41:15;;;;;;;3.67;2.80;;;18.90;29.20;;;;;;8330637;28;20041;-56
2021/01/08 04:45:16;;;;;;;3.70;3.03;;;18.90;29.20;;;;;;8337247;28;20124;-57
2021/01/08 04:49:17;;;;;;;4.57;3.27;;;18.90;29.20;;;;;;8363112;28;20398;-56
2021/01/08 04:53:18;;;;;;;;;;;18.90;29.20;;;;;;8366456;28;20037;-54
2021/01/08 04:57:20;;;;;;;5.13;3.88;;;18.90;29.10;;;;;;8354570;28;19919;-56
2021/01/08 05:01:20;;;;;;;4.18;3.33;;;18.90;29.10;;;;;;8347001;28;20136;-57
2021/01/08 05:05:22;;;;;;;4.67;3.27;;;18.90;29.20;;;;;;8360919;28;20037;-56
2021/01/08 05:09:22;;;;;;;3.83;3.08;;;18.90;29.20;;;;;;8330365;28;20033;-56
2021/01/08 05:13:36;;;;;;;3.30;2.97;;;19.00;29.20;;;;;;8334076;28;20076;-56
2021/01/08 05:17:38;;;;;;;4.38;3.15;;;19.00;29.10;;;;;;8330638;28;20393;-58
2021/01/08 05:21:40;;;;;;;5.80;3.63;;;19.10;29.00;;;;;;8350909;28;20045;-57
2021/01/08 05:25:45;;;;;;;5.23;3.17;;;19.10;28.90;;;;;;8348815;28;20048;-57
2021/01/08 05:29:46;;;;;;;4.70;3.50;;;19.20;28.90;;;;;;8363532;28;20033;-57
2021/01/08 05:33:48;;;;;;;4.47;2.73;;;19.20;28.90;;;;;;8351629;28;20407;-57
2021/01/08 05:37:51;;;;;;;4.47;3.70;;;19.30;28.80;;;;;;8328911;28;20063;-57
2021/01/08 05:41:52;;;;;;;3.58;3.00;;;19.30;28.80;;;;;;8351633;28;20453;-56
2021/01/08 05:45:52;;;;;;;3.37;2.80;;;19.40;28.80;;;;;;8327789;28;20033;-57
2021/01/08 05:49:57;;;;;;;4.17;2.90;;;19.40;28.80;;;;;;8354376;28;20272;-57
2021/01/08 05:54:02;;;;;;;5.07;2.72;;;19.40;28.70;;;;;;8329192;28;20033;-58
2021/01/08 05:58:26;;;;;;;4.45;2.97;;;19.40;28.70;;;;;;8342819;28;20052;-56
2021/01/08 06:02:27;;;;;;;4.13;2.53;;;19.40;28.70;;;;;;8356734;28;20045;-58
2021/01/08 06:06:39;;;;;;;3.35;2.38;;;19.50;28.70;;;;;;8361097;28;20478;-57
2021/01/08 06:10:43;;;;;;;3.42;2.67;;;19.50;28.60;;;;;;8345569;28;20033;-58
2021/01/08 06:14:44;;;;;;;3.33;2.70;;;19.50;28.70;;;;;;8350785;28;20037;-55
2021/01/08 06:18:47;;;;;;;3.67;2.42;;;19.50;28.60;;;;;;8327731;28;20052;-58
2021/01/08 06:22:48;;;;;;;3.63;2.58;;;19.60;29.10;;;;;;8327305;28;20032;-57
2021/01/08 06:26:49;;;;;;;4.10;2.73;;;19.60;28.60;;;;;;8330151;28;20033;-57
2021/01/08 06:30:52;;;;;;;4.00;2.75;;;19.60;28.60;;;;;;8327517;28;20045;-57
2021/01/08 06:34:59;;;;;;;3.08;2.40;;;19.60;28.60;;;;;;8348402;28;20108;-57
2021/01/08 06:39:06;;;;;;;3.47;3.00;;;19.60;28.60;;;;;;8352425;28;20053;-57
2021/01/08 06:43:17;;;;;;;3.65;2.60;;;19.60;28.50;;;;;;8327043;28;20051;-58
2021/01/08 06:47:21;;;;;;;3.67;2.63;;;19.70;28.60;;;;;;8329528;28;20099;-56
2021/01/08 06:51:31;;;;;;;3.40;2.55;;;19.70;28.50;;;;;;8326439;28;20047;-57
2021/01/08 06:55:38;;;;;;;2.80;2.20;;;19.70;28.50;;;;;;8326229;28;20033;-56
2021/01/08 06:59:50;;;;;;;3.15;2.55;;;19.70;28.50;;;;;;8323889;28;20099;-57
2021/01/08 07:03:52;;;;;;;3.08;2.22;;;19.70;28.50;;;;;;8326525;28;20046;-57
2021/01/08 07:07:53;;;;;;;;;;;19.70;28.40;;;;;;8331158;28;20033;-57
2021/01/08 07:11:55;;;;;;;3.25;2.35;;;19.70;28.50;;;;;;8324360;28;19913;-57
2021/01/08 07:15:56;;;;;;;3.17;2.70;;;19.70;28.40;;;;;;8339112;28;20039;-57
2021/01/08 07:19:59;;;;;;;4.82;3.45;;;19.80;28.50;;;;;;8358499;28;20033;-57
2021/01/08 07:24:01;;;;;;;3.95;3.00;;;19.80;28.40;;;;;;8330710;28;20159;-57
2021/01/08 07:28:09;;;;;;;3.80;2.75;;;19.80;28.50;;;;;;8325439;28;20048;-57
2021/01/08 07:32:09;;;;;;;5.43;3.00;;;19.80;28.40;;;;;;8325323;28;20033;-57
2021/01/08 07:36:25;;;;;;;4.13;3.17;;;19.80;28.40;;;;;;8355477;28;20035;-57
2021/01/08 07:40:31;;;;;;;3.72;2.60;;;19.80;28.40;;;;;;8358061;28;20128;-57
2021/01/08 07:44:33;;;;;;;4.70;2.92;;;19.80;28.40;;;;;;8333949;28;20119;-57
2021/01/08 07:48:38;;;;;;;3.85;2.90;;;19.80;28.40;;;;;;8325021;28;20036;-57
2021/01/08 07:52:41;;;;;;;2.78;2.40;;;19.80;28.40;;;;;;8324679;28;20041;-57
2021/01/08 07:57:06;;;;;;;3.63;2.75;;;19.80;28.40;;;;;;8322144;28;20033;-57
2021/01/08 08:01:09;;;;;;;3.88;2.78;;;19.80;28.30;;;;;;8323018;28;20394;-57
2021/01/08 08:05:10;;;;;;;3.55;2.63;;;19.90;28.40;;;;;;8327479;28;20442;-57
2021/01/08 08:09:13;;;;;;;;;;;19.90;28.40;;;;;;8321647;28;20045;-57
2021/01/08 08:13:14;;;;;;;3.55;2.80;;;19.90;28.40;;;;;;8322373;28;19920;-57
2021/01/08 08:17:15;;;;;;;4.65;2.95;;;19.90;28.40;;;;;;8323028;28;20137;-57
2021/01/08 08:21:16;;;;;;;4.17;3.37;;;19.80;28.40;;;;;;8326526;28;20033;-57
2021/01/08 08:25:25;;;;;;;3.03;2.67;;;19.80;28.40;;;;;;8340846;28;20478;-57
2021/01/08 08:29:26;;;;;;;3.72;2.90;;;19.80;28.40;;;;;;8328997;28;20046;-57
2021/01/08 08:33:27;;;;;;;5.10;3.43;;;19.70;28.40;;;;;;8324356;28;20036;-57
2021/01/08 08:37:27;;;;;;;3.97;3.03;;;19.70;28.40;;;;;;8323885;28;20505;-57
2021/01/08 08:41:29;;;;;;;3.23;2.63;;;19.70;28.50;;;;;;8326735;28;20029;-57
2021/01/08 08:45:33;;;;;;;;;;;19.60;28.50;;;;;;8324265;28;20406;-57
2021/01/08 08:49:37;;;;;;;4.38;2.83;;;19.60;28.50;;;;;;8323948;28;20281;-57
2021/01/08 08:53:38;;;;;;;4.80;3.75;;;19.60;28.50;;;;;;8322194;28;20111;-57
2021/01/08 08:57:38;;;;;;;4.07;3.00;;;19.50;28.50;;;;;;8339141;28;20057;-57
2021/01/08 09:01:41;;;;;;;3.70;2.93;;;19.50;28.60;;;;;;8337078;28;20048;-57
2021/01/08 09:05:42;;;;;;;4.68;2.90;;;19.40;28.60;;;;;;8325985;28;20453;-57
2021/01/08 09:09:45;;;;;;;3.67;2.67;;;19.40;28.60;;;;;;8356599;28;20040;-57
2021/01/08 09:14:03;;;;;;;4.55;2.75;;;19.40;28.60;;;;;;8335968;28;20510;-57
2021/01/08 09:18:20;;;;;;;3.90;2.97;;;19.30;28.60;;;;;;8325993;28;20521;-57
2021/01/08 09:22:21;;;;;;;4.78;2.85;;;19.30;28.60;;;;;;8327523;28;20033;-57
2021/01/08 09:26:22;;;;;;;3.90;3.00;;;19.30;28.60;;;;;;8352481;28;20041;-57
2021/01/08 09:30:23;;;;;;;4.15;3.28;;;19.30;28.70;;;;;;8328847;28;20491;-57
2021/01/08 09:34:25;;;;;;;5.20;3.17;;;19.20;28.70;;;;;;8329166;28;20057;-57
2021/01/08 09:38:29;;;;;;;5.68;3.15;;;19.20;28.70;;;;;;8331337;28;20049;-57
2021/01/08 09:42:35;;;;;;;3.55;2.85;;;19.20;28.70;;;;;;8329081;28;20042;-57
2021/01/08 09:46:53;;;;;;;3.80;2.97;;;19.10;28.70;;;;;;8329139;28;20041;-58
2021/01/08 09:51:04;;;;;;;5.13;3.22;;;19.10;28.70;;;;;;8326845;28;20080;-57
2021/01/08 09:55:05;;;;;;;4.78;3.10;;;19.10;28.70;;;;;;8329814;28;20033;-57
2021/01/08 09:59:16;;;;;;;3.60;2.80;;;19.10;28.80;;;;;;8354916;28;20103;-58
2021/01/08 10:03:18;;;;;;;3.67;2.67;;;19.00;28.70;;;;;;8334767;28;20048;-58
2021/01/08 10:07:18;;;;;;;4.15;3.10;;;19.00;28.70;;;;;;8344061;28;20034;-57
2021/01/08 10:11:26;;;;;;;3.33;2.83;;;19.00;28.80;;;;;;8350889;28;20505;-57
2021/01/08 10:15:41;;;;;;;3.13;2.58;;;19.00;28.90;;;;;;8332516;28;20034;-58
2021/01/08 10:19:44;;;;;;;3.90;2.70;;;19.00;28.90;;;;;;8327407;28;20045;-58
2021/01/08 10:23:45;;;;;;;4.00;3.15;;;19.00;28.90;;;;;;8325956;28;20048;-58
2021/01/08 10:27:46;;;;;;;3.10;2.50;;;19.00;28.90;;;;;;8327296;28;20045;-57
2021/01/08 10:31:46;;;;;;;3.83;2.93;;;19.00;28.80;;;;;;8327036;28;20112;-57
2021/01/08 10:35:55;;;;;;;4.03;2.97;;;19.00;28.90;;;;;;8329943;28;20080;-58
2021/01/08 10:39:55;;;;;;;4.28;3.05;;;19.00;28.80;;;;;;8326944;28;20136;-58
2021/01/08 10:43:56;;;;;;;4.27;3.23;;;19.00;28.80;;;;;;8326722;28;20034;-58
2021/01/08 10:47:56;;;;;;;3.93;2.90;;;19.00;28.80;;;;;;8325115;28;20033;-58
2021/01/08 10:51:57;;;;;;;3.07;2.77;;;19.00;28.80;;;;;;8344629;28;20154;-58
2021/01/08 10:55:58;;;;;;;3.03;2.73;;;19.00;28.90;;;;;;8358882;28;20033;-58
2021/01/08 10:59:58;;;;;;;4.33;2.80;;;19.00;28.90;;;;;;8327025;28;20096;-58
2021/01/08 11:03:58;;;;;;;3.37;2.80;;;19.00;28.80;;;;;;8326468;28;20071;-58
2021/01/08 11:07:59;;;;;;;3.43;3.10;;;19.00;28.80;;;;;;8325893;28;20103;-58
2021/01/08 11:12:00;;;;;;;3.27;2.80;;;19.00;28.80;;;;;;8353407;28;20030;-58
2021/01/08 11:16:00;;;;;;;3.90;2.77;;;19.00;28.80;;;;;;8325660;28;20037;-58
2021/01/08 11:20:01;;;;;;;4.50;2.57;;;19.00;28.90;;;;;;8325473;28;20303;-59
2021/01/08 11:24:01;;;;;;;3.90;2.73;;;19.00;28.90;;;;;;8348727;28;20065;-58
2021/01/08 11:28:02;;;;;;;4.10;2.60;;;19.00;28.80;;;;;;8344134;28;20064;-58
2021/01/08 11:32:06;;;;;;;4.13;2.90;;;19.00;28.90;;;;;;8358246;28;20048;-58
2021/01/08 11:36:07;;;;;;;3.50;2.70;;;19.00;28.90;;;;;;8324826;28;20040;-58
2021/01/08 11:40:08;;;;;;;3.87;3.03;;;19.00;28.90;;;;;;8324773;28;20379;-59
2021/01/08 11:44:09;;;;;;;5.03;2.95;;;19.00;28.80;;;;;;8351629;28;20433;-57
2021/01/08 11:48:10;;;;;;;4.40;2.97;;;19.00;29.30;;;;;;8355919;28;20103;-57
2021/01/08 11:52:10;;;;;;;6.03;2.80;;;18.90;29.10;;;;;;8351608;28;20123;-59
2021/01/08 11:56:12;;;;;;;4.20;2.90;;;19.00;29.50;;;;;;8330440;28;20037;-57
2021/01/08 12:00:12;;;;;;;;;;;19.00;29.60;;;;;;8313646;28;20119;-59
2021/01/08 12:04:13;;;;;;;4.50;2.87;;;19.00;29.70;;;;;;8331296;28;19921;-57
2021/01/08 12:08:13;;;;;;;6.47;3.10;;;19.00;29.80;;;;;;8334753;28;20045;-58
2021/01/08 12:12:14;;;;;;;8.03;2.57;;;19.00;29.90;;;;;;8335614;28;20038;-57
2021/01/08 12:16:15;;;;;;;9.27;3.10;;;19.10;30.20;;;;;;8308684;28;20116;-58
2021/01/08 12:20:17;;;;;;;8.77;3.40;;;19.20;30.00;;;;;;8321816;28;20139;-58
2021/01/08 12:24:17;;;;;;;5.70;2.83;;;19.30;29.90;;;;;;8340650;28;20069;-57
2021/01/08 12:28:18;;;;;;;4.27;2.87;;;19.30;29.80;;;;;;8318414;28;20045;-57
2021/01/08 12:32:18;;;;;;;9.03;3.13;;;19.40;29.70;;;;;;8341470;28;20072;-58
2021/01/08 12:36:20;;;;;;;6.70;2.93;;;19.50;29.70;;;;;;8342831;28;20398;-58
2021/01/08 12:40:21;;;;;;;6.75;3.75;;;19.60;29.60;;;;;;8321864;28;20498;-58
2021/01/08 12:44:22;;;;;;;5.78;2.53;;;19.70;29.60;;;;;;8316629;28;20041;-59
2021/01/08 12:48:23;;;;;;;6.20;3.03;;;19.70;29.60;;;;;;8317424;28;20452;-58
2021/01/08 12:52:27;;;;;;;6.00;3.10;;;19.80;29.50;;;;;;8335014;28;20055;-59
2021/01/08 12:56:34;;;;;;;5.53;3.33;;;19.80;29.50;;;;;;8357901;28;20083;-59
2021/01/08 13:00:34;;;;;;;3.97;2.88;;;19.90;29.50;;;;;;8345896;28;20064;-59
2021/01/08 13:04:35;;;;;;;5.50;3.27;;;20.00;29.50;;;;;;8324293;28;20042;-59
2021/01/08 13:08:35;;;;;;;4.57;3.20;;;20.00;29.40;;;;;;8322098;28;20029;-60
2021/01/08 13:12:36;;;;;;;4.53;2.77;;;20.10;29.50;;;;;;8337460;28;20036;-60
2021/01/08 13:16:36;;;;;;;4.20;2.93;;;20.10;29.40;;;;;;8356582;28;20737;-59
2021/01/08 13:20:37;;;;;;;7.50;3.07;;;20.10;29.30;;;;;;8326962;28;20084;-60
2021/01/08 13:24:37;;;;;;;4.33;3.00;;;20.20;29.40;;;;;;8334458;28;20131;-59
2021/01/08 13:28:39;;;;;;;5.70;2.70;;;20.20;29.40;;;;;;8335248;28;20514;-59
2021/01/08 13:32:40;;;;;;;4.43;2.80;;;20.30;29.40;;;;;;8350119;28;20033;-59
2021/01/08 13:36:40;;;;;;;4.67;2.90;;;20.30;29.30;;;;;;8322683;28;20175;-60
2021/01/08 13:40:41;;;;;;;5.00;3.10;;;20.30;29.80;;;;;;8322976;28;20053;-59
2021/01/08 13:44:42;;;;;;;3.50;2.60;;;20.30;29.30;;;;;;8320790;28;20132;-59
2021/01/08 13:48:43;;;;;;;3.65;2.88;;;20.40;29.40;;;;;;8326211;28;20139;-59
2021/01/08 13:52:44;;;;;;;4.05;2.88;;;20.40;29.30;;;;;;8322153;28;20040;-59
2021/01/08 13:56:46;;;;;;;5.32;2.78;;;20.50;29.30;;;;;;8320661;28;20042;-59
2021/01/08 14:00:46;;;;;;;;;;;20.50;29.20;;;;;;8321044;28;20041;-60
2021/01/08 14:04:47;;;;;;;5.87;2.80;;;20.50;29.40;;;;;;8321268;28;19916;-59
2021/01/08 14:08:49;;;;;;;5.70;2.97;;;20.50;29.50;;;;;;8323650;28;20029;-59
2021/01/08 14:12:49;;;;;;;8.90;3.08;;;20.60;29.50;;;;;;8321118;28;20073;-60
2021/01/08 14:16:50;;;;;;;8.13;3.13;;;20.60;29.50;;;;;;8320034;28;20065;-60
2021/01/08 14:20:50;;;;;;;12.97;3.60;;;20.60;29.50;;;;;;8319364;28;20049;-60
2021/01/08 14:24:51;;;;;;;4.20;2.90;;;20.60;29.60;;;;;;8325352;28;20055;-60
2021/01/08 14:28:52;;;;;;;6.87;2.73;;;20.70;29.60;;;;;;8321496;28;20050;-60
2021/01/08 14:32:53;;;;;;;5.80;3.97;;;20.70;29.50;;;;;;8319832;28;20042;-61
2021/01/08 14:36:57;;;;;;;5.10;3.07;;;20.70;29.40;;;;;;8320502;28;20069;-61
2021/01/08 14:40:58;;;;;;;5.28;2.92;;;20.80;29.50;;;;;;8325027;28;20526;-60
2021/01/08 14:44:58;;;;;;;7.37;3.23;;;20.80;29.40;;;;;;8318831;28;20477;-61
2021/01/08 14:48:59;;;;;;;3.90;2.83;;;20.90;29.40;;;;;;8320219;28;20414;-59
2021/01/08 14:52:59;;;;;;;3.10;2.50;;;20.90;29.30;;;;;;8320560;28;20502;-61
2021/01/08 14:57:00;;;;;;;4.37;2.87;;;20.90;29.20;;;;;;8324010;28;20045;-60
2021/01/08 15:01:03;;;;;;;4.80;3.00;;;20.90;29.20;;;;;;8357703;28;20080;-61
2021/01/08 15:05:04;;;;;;;3.75;2.85;;;21.00;29.20;;;;;;8352532;28;20029;-61
2021/01/08 15:09:06;;;;;;;5.93;2.80;;;21.00;29.20;;;;;;8319555;28;20125;-59
2021/01/08 15:13:06;;;;;;;;;;;21.00;29.20;;;;;;8320656;28;20487;-61
2021/01/08 15:17:07;;;;;;;4.73;2.50;;;21.00;29.10;;;;;;8323677;28;19936;-61
2021/01/08 15:21:09;;;;;;;4.83;2.83;;;21.00;29.20;;;;;;8316843;28;20103;-60
2021/01/08 15:25:10;;;;;;;4.25;2.67;;;21.10;29.20;;;;;;8318531;28;20495;-60
2021/01/08 15:29:11;;;;;;;4.28;2.88;;;21.10;29.20;;;;;;8319951;28;20099;-60
2021/01/08 15:33:11;;;;;;;5.27;2.80;;;21.10;29.20;;;;;;8342781;28;20429;-60
2021/01/08 15:37:11;;;;;;;5.43;3.33;;;21.10;29.20;;;;;;8323933;28;20104;-61
2021/01/08 15:41:13;;;;;;;4.03;2.90;;;21.20;29.10;;;;;;8342947;28;20131;-60
2021/01/08 15:45:14;;;;;;;4.35;2.63;;;21.20;29.10;;;;;;8325699;28;20041;-60
2021/01/08 15:49:14;;;;;;;4.43;2.40;;;21.20;29.50;;;;;;8352457;28;20037;-61
2021/01/08 15:53:15;;;;;;;3.23;2.60;;;21.30;29.10;;;;;;8356385;28;20059;-60
2021/01/08 15:57:16;;;;;;;4.27;3.07;;;21.30;29.10;;;;;;8317520;28;20044;-60
2021/01/08 16:01:16;;;;;;;3.70;2.80;;;21.30;29.00;;;;;;8318597;28;20057;-60
2021/01/08 16:05:17;;;;;;;4.43;2.63;;;21.30;29.00;;;;;;8318787;28;20041;-60
2021/01/08 16:09:17;;;;;;;3.77;2.53;;;21.30;29.00;;;;;;8346746;28;20335;-60
2021/01/08 16:13:19;;;;;;;3.47;2.87;;;21.30;29.00;;;;;;8318305;28;20556;-59
2021/01/08 16:17:20;;;;;;;5.10;2.95;;;21.40;29.00;;;;;;8317031;28;20038;-59
2021/01/08 16:21:20;;;;;;;3.27;2.60;;;21.30;29.00;;;;;;8327117;28;20498;-60
2021/01/08 16:25:21;;;;;;;3.47;2.40;;;21.40;29.00;;;;;;8334725;28;20033;-60
2021/01/08 16:29:21;;;;;;;3.63;2.50;;;21.40;28.90;;;;;;8322211;28;20040;-59
2021/01/08 16:33:22;;;;;;;3.07;2.77;;;21.40;28.90;;;;;;8324933;28;20054;-60
2021/01/08 16:37:22;;;;;;;3.53;2.60;;;21.40;28.80;;;;;;8324509;28;20091;-58
2021/01/08 16:41:23;;;;;;;3.33;3.00;;;21.40;28.90;;;;;;8348133;28;20053;-60
2021/01/08 16:45:24;;;;;;;3.80;3.07;;;21.40;28.90;;;;;;8338710;28;20043;-61
2021/01/08 16:49:24;;;;;;;4.05;2.85;;;21.40;28.90;;;;;;8339963;28;20343;-60
2021/01/08 16:53:25;;;;;;;2.73;2.37;;;21.40;28.80;;;;;;8322997;28;20123;-60
2021/01/08 16:57:25;;;;;;;4.57;3.07;;;21.50;28.80;;;;;;8324196;28;20103;-60
2021/01/08 17:01:30;;;;;;;3.50;3.03;;;21.40;28.80;;;;;;8328528;28;20742;-58
2021/01/08 17:05:30;;;;;;;3.97;2.70;;;21.40;28.80;;;;;;8349499;28;20037;-61
2021/01/08 17:09:31;;;;;;;4.00;2.93;;;21.50;28.80;;;;;;8324429;28;20041;-60
2021/01/08 17:13:32;;;;;;;3.70;2.65;;;21.50;28.80;;;;;;8323785;28;20650;-61
2021/01/08 17:17:32;;;;;;;3.60;2.73;;;21.50;29.20;;;;;;8322680;28;20041;-59
2021/01/08 17:21:34;;;;;;;3.23;2.70;;;21.50;29.20;;;;;;8327965;28;20052;-60
2021/01/08 17:25:35;;;;;;;4.18;2.88;;;21.50;29.10;;;;;;8323585;28;20042;-61
2021/01/08 17:29:38;;;;;;;4.33;2.80;;;21.50;29.00;;;;;;8321699;28;20041;-63
2021/01/08 17:33:39;;;;;;;6.28;3.10;;;21.50;29.10;;;;;;8327031;28;20407;-61
2021/01/08 17:37:39;;;;;;;9.17;3.13;;;21.50;29.20;;;;;;8346924;28;20123;-62
2021/01/08 17:41:40;;;;;;;6.07;3.00;;;21.50;29.20;;;;;;8328016;28;20458;-61
2021/01/08 17:45:42;;;;;;;4.93;3.20;;;21.50;29.20;;;;;;8356160;28;20041;-61
2021/01/08 17:49:43;;;;;;;7.00;3.15;;;21.60;29.20;;;;;;8356202;28;20071;-61
2021/01/08 17:53:44;;;;;;;6.63;3.20;;;21.60;29.10;;;;;;8329428;28;20095;-61
2021/01/08 17:57:44;;;;;;;4.18;3.00;;;21.60;29.10;;;;;;8347774;28;20137;-61
2021/01/08 18:01:45;;;;;;;5.10;2.77;;;21.60;29.10;;;;;;8342710;28;20048;-61
2021/01/08 18:05:46;;;;;;;8.20;3.67;;;21.60;29.00;;;;;;8350103;28;20041;-62
2021/01/08 18:09:46;;;;;;;15.23;3.53;;;21.60;29.10;;;;;;8328831;28;20339;-61
2021/01/08 18:13:46;;;;;;;6.93;3.30;;;21.60;29.00;;;;;;8347663;28;20505;-62
2021/01/08 18:17:47;;;;;;;5.57;3.50;;;21.60;29.00;;;;;;8324798;28;20045;-59
2021/01/08 18:21:49;;;;;;;4.73;3.70;;;21.60;29.00;;;;;;8322401;28;20041;-59
2021/01/08 18:25:50;;;;;;;4.43;3.50;;;21.60;29.00;;;;;;8321846;28;20038;-59
2021/01/08 18:29:52;;;;;;;4.38;3.40;;;21.70;29.10;;;;;;8349218;28;20037;-59
2021/01/08 18:33:52;;;;;;;5.80;3.28;;;21.70;29.10;;;;;;8321833;28;20562;-59
2021/01/08 18:37:54;;;;;;;6.33;3.30;;;21.70;29.00;;;;;;8325904;28;20088;-60
2021/01/08 18:41:54;;;;;;;;;;;21.70;29.00;;;;;;8331219;28;20039;-60
2021/01/08 18:45:55;;;;;;;5.77;3.93;;;21.70;29.10;;;;;;8347110;28;20362;-60
2021/01/08 18:49:55;;;;;;;5.77;3.87;;;21.60;29.00;;;;;;8331115;28;20040;-60
2021/01/08 18:53:56;;;;;;;4.50;3.13;;;21.70;28.90;;;;;;8325033;28;20121;-60
2021/01/08 18:57:56;;;;;;;6.47;3.30;;;21.70;28.90;;;;;;8326826;28;20034;-60
2021/01/08 19:02:00;;;;;;;7.57;4.10;;;21.70;28.80;;;;;;8326619;28;20042;-60
2021/01/08 19:06:01;;;;;;;6.00;4.22;;;21.70;28.80;;;;;;8329593;28;20068;-60
2021/01/08 19:10:03;;;;;;;5.40;3.47;;;21.70;28.80;;;;;;8326521;28;20094;-61
2021/01/08 19:14:05;;;;;;;4.80;3.80;;;21.70;28.70;;;;;;8326190;28;20459;-61
2021/01/08 19:18:06;;;;;;;6.53;3.42;;;21.60;28.60;;;;;;8324875;28;20048;-60
2021/01/08 19:22:07;;;;;;;5.70;3.65;;;21.70;28.70;;;;;;8326257;28;20037;-61
2021/01/08 19:26:14;;;;;;;4.07;3.47;;;21.70;28.60;;;;;;8329848;28;20037;-59
2021/01/08 19:30:15;;;;;;;5.65;4.00;;;21.70;28.70;;;;;;8356628;28;20040;-60
2021/01/08 19:34:16;;;;;;;7.68;4.00;;;21.60;28.60;;;;;;8358381;28;20478;-60
2021/01/08 19:38:18;;;;;;;5.97;3.58;;;21.70;28.50;;;;;;8333343;28;20124;-60
2021/01/08 19:42:19;;;;;;;5.35;3.88;;;21.60;28.50;;;;;;8328432;28;20060;-60
2021/01/08 19:46:20;;;;;;;4.93;3.70;;;21.60;28.50;;;;;;8325613;28;20042;-60
2021/01/08 19:50:21;;;;;;;3.63;3.03;;;21.60;28.50;;;;;;8323595;28;20380;-60
2021/01/08 19:54:22;;;;;;;4.15;3.58;;;21.60;28.50;;;;;;8324976;28;20057;-61
2021/01/08 19:58:23;;;;;;;5.68;3.60;;;21.60;28.50;;;;;;8325703;28;20060;-59
2021/01/08 20:02:27;;;;;;;4.82;3.40;;;21.60;28.40;;;;;;8326939;28;20068;-60
2021/01/08 20:06:27;;;;;;;3.75;3.20;;;21.60;28.40;;;;;;8324449;28;20406;-61
2021/01/08 20:10:29;;;;;;;5.55;3.60;;;21.60;28.40;;;;;;8324787;28;20072;-60
2021/01/08 20:14:30;;;;;;;4.35;3.67;;;21.60;28.40;;;;;;8322661;28;20071;-61
2021/01/08 20:18:31;;;;;;;4.53;3.47;;;21.60;28.40;;;;;;8329051;28;20045;-62
2021/01/08 20:22:32;;;;;;;4.05;3.58;;;21.60;28.40;;;;;;8324537;28;20128;-62
2021/01/08 20:26:36;;;;;;;6.53;3.67;;;21.60;28.40;;;;;;8322663;28;20099;-62
2021/01/08 20:30:39;;;;;;;6.70;4.32;;;21.60;28.30;;;;;;8324400;28;20121;-62
2021/01/08 20:34:40;;;;;;;7.57;4.50;;;21.60;28.30;;;;;;8328839;28;20041;-62
2021/01/08 20:38:41;;;;;;;6.88;3.70;;;21.60;28.30;;;;;;8322506;28;20052;-62
2021/01/08 20:42:46;;;;;;;4.82;4.03;;;21.60;28.30;;;;;;8323986;28;20037;-62
2021/01/08 20:46:48;;;;;;;5.35;3.92;;;21.60;28.30;;;;;;8324246;28;20030;-61
2021/01/08 20:50:49;;;;;;;5.85;3.90;;;21.60;28.30;;;;;;8322473;28;20546;-62
2021/01/08 20:54:50;;;;;;;5.32;3.70;;;21.60;28.30;;;;;;8328490;28;20052;-62
2021/01/08 20:58:50;;;;;;;5.32;3.75;;;21.60;28.20;;;;;;8323772;28;20164;-62
2021/01/08 21:02:56;;;;;;;6.03;4.00;;;21.60;28.30;;;;;;8322522;28;20037;-61